Time;durP1;ratioP1;P1;durP2;ratioP2;P2;SDS_P1;SDS_P2;PMS_P1;PMS_P2;Temp;Humidity;BMP_temperature;BMP_pressure;BME280_temperature;BME280_humidity;BME280_pressure;Samples;Min_cycle;Max_cycle;Signal;HPM_P1;HPM_P2
2023/02/24 00:01:40;;;;;;;35.57;19.30;;;8.70;99.90;8.60;99928.00;;;;4937922;28;98650;-64
2023/02/24 00:04:12;;;;;;;34.63;20.93;;;8.70;99.90;8.60;99933.00;;;;4938129;28;89250;-64
2023/02/24 00:06:40;;;;;;;38.70;20.23;;;8.70;99.90;8.60;99932.00;;;;4947348;28;87899;-63
2023/02/24 00:09:18;;;;;;;30.87;18.17;;;8.70;99.90;8.60;99936.00;;;;4938446;28;91324;-64
2023/02/24 00:12:09;;;;;;;33.10;18.50;;;8.70;99.90;8.60;99933.00;;;;4942781;28;88018;-63
2023/02/24 00:14:37;;;;;;;32.67;19.07;;;8.70;99.90;8.60;99935.00;;;;4936940;28;87780;-64
2023/02/24 00:17:08;;;;;;;26.10;18.00;;;8.70;99.90;8.60;99925.00;;;;4937913;28;87759;-63
2023/02/24 00:19:35;;;;;;;34.57;19.43;;;8.70;99.90;8.60;99930.00;;;;4937642;28;87755;-63
2023/02/24 00:22:04;;;;;;;30.60;19.73;;;8.70;99.90;8.60;99922.00;;;;4937657;28;106031;-65
2023/02/24 00:24:31;;;;;;;42.77;19.03;;;8.70;99.90;8.60;99921.00;;;;4932544;28;88007;-64
2023/02/24 00:27:00;;;;;;;29.50;18.67;;;8.60;99.90;8.60;99922.00;;;;4938178;28;87825;-64
2023/02/24 00:29:28;;;;;;;42.63;21.13;;;8.70;99.90;8.50;99921.00;;;;4949618;28;88740;-63
2023/02/24 00:31:59;;;;;;;23.37;16.73;;;8.70;99.90;8.50;99913.00;;;;4937705;28;88481;-62
2023/02/24 00:34:27;;;;;;;29.50;17.80;;;8.70;99.90;8.50;99912.00;;;;4934733;28;88511;-64
2023/02/24 00:36:53;;;;;;;35.97;17.97;;;8.60;99.90;8.50;99925.00;;;;4934476;28;87856;-63
2023/02/24 00:39:29;;;;;;;23.73;16.03;;;8.60;99.90;8.50;99924.00;;;;4935835;28;106824;-64
2023/02/24 00:42:03;;;;;;;33.27;17.37;;;8.60;99.90;8.50;99916.00;;;;4937604;28;88279;-64
2023/02/24 00:44:34;;;;;;;28.40;15.60;;;8.60;99.90;8.50;99924.00;;;;4939619;28;88173;-65
2023/02/24 00:47:01;;;;;;;32.67;16.73;;;8.60;99.90;8.50;99914.00;;;;4943935;28;103382;-64
2023/02/24 00:49:28;;;;;;;26.67;16.47;;;8.60;99.90;8.50;99914.00;;;;4937082;28;88174;-63
2023/02/24 00:51:54;;;;;;;29.57;15.20;;;8.50;99.90;8.40;99902.00;;;;4936970;28;88754;-66
2023/02/24 00:54:23;;;;;;;21.43;12.80;;;8.50;99.90;8.40;99904.00;;;;4935022;28;104039;-64
2023/02/24 00:56:49;;;;;;;23.23;13.20;;;8.50;99.90;8.40;99908.00;;;;4936943;28;87821;-64
2023/02/24 00:59:17;;;;;;;19.27;11.00;;;8.50;99.90;8.30;99911.00;;;;4934730;28;104578;-66
2023/02/24 01:01:44;;;;;;;20.77;11.90;;;8.40;99.90;8.20;99893.00;;;;4933743;28;87879;-64
2023/02/24 01:04:12;;;;;;;15.67;9.63;;;8.40;99.90;8.20;99903.00;;;;4936730;28;88636;-64
2023/02/24 01:06:45;;;;;;;19.93;11.77;;;8.40;99.90;8.10;99889.00;;;;4949317;28;90635;-63
2023/02/24 01:09:14;;;;;;;17.40;10.00;;;8.30;99.90;8.10;99893.00;;;;4935858;28;88234;-65
2023/02/24 01:12:37;;;;;;;14.07;8.97;;;8.30;99.90;8.00;99882.00;;;;4931934;28;89101;-65
2023/02/24 01:14:49;;;;;;;14.90;7.83;;;8.20;99.90;8.00;99880.00;;;;4931375;28;88022;-63
2023/02/24 01:17:17;;;;;;;16.90;8.13;;;8.10;99.90;7.90;99878.00;;;;4938618;28;87970;-65
2023/02/24 01:19:44;;;;;;;11.17;7.00;;;8.10;99.90;7.90;99876.00;;;;4936551;28;89034;-64
2023/02/24 01:22:14;;;;;;;11.17;7.30;;;8.00;99.90;7.80;99885.00;;;;4936646;28;88908;-65
2023/02/24 01:24:43;;;;;;;10.50;6.77;;;8.00;99.90;7.80;99882.00;;;;4945068;28;88935;-65
2023/02/24 01:27:12;;;;;;;10.40;6.17;;;7.90;99.90;7.80;99870.00;;;;4934730;28;101560;-66
2023/02/24 01:29:38;;;;;;;13.10;7.33;;;7.40;99.90;7.70;99869.00;;;;4936453;28;91636;-65
2023/02/24 01:32:19;;;;;;;12.30;7.83;;;7.90;99.90;7.70;99863.00;;;;4937406;28;88615;-65
2023/02/24 01:34:46;;;;;;;11.77;7.13;;;7.80;99.90;7.70;99867.00;;;;4934337;28;87766;-65
2023/02/24 01:37:15;;;;;;;11.93;7.00;;;7.80;99.90;7.70;99858.00;;;;4937461;28;96900;-65
2023/02/24 01:39:42;;;;;;;12.23;7.17;;;7.80;99.90;7.60;99857.00;;;;4931655;28;88156;-64
2023/02/24 01:42:18;;;;;;;12.93;8.33;;;7.80;99.90;7.60;99862.00;;;;4934890;28;88090;-64
2023/02/24 01:44:43;;;;;;;20.87;8.67;;;7.70;99.90;7.60;99862.00;;;;4948338;28;88915;-64
2023/02/24 01:47:10;;;;;;;15.20;7.90;;;7.80;99.90;7.60;99858.00;;;;4933826;28;87508;-63
2023/02/24 01:49:48;;;;;;;15.60;8.50;;;7.70;99.90;7.60;99862.00;;;;4933789;28;109870;-63
2023/02/24 01:52:24;;;;;;;12.87;8.60;;;7.80;99.90;7.60;99855.00;;;;4932535;28;107504;-63
2023/02/24 01:54:57;;;;;;;19.10;9.07;;;7.70;99.90;7.60;99846.00;;;;4919837;28;88370;-65
2023/02/24 01:57:28;;;;;;;16.50;8.77;;;7.70;99.90;7.60;99847.00;;;;4936619;28;87950;-65
2023/02/24 02:00:00;;;;;;;21.23;9.83;;;7.70;99.90;7.60;99843.00;;;;4920372;28;87889;-66
2023/02/24 02:02:27;;;;;;;14.87;8.33;;;7.70;99.90;7.60;99836.00;;;;4948685;28;88618;-67
2023/02/24 02:05:03;;;;;;;15.50;9.20;;;7.80;99.90;7.60;99834.00;;;;4914096;28;116077;-66
2023/02/24 02:07:28;;;;;;;12.40;8.27;;;7.70;99.90;7.50;99826.00;;;;4919152;28;88280;-65
2023/02/24 02:09:59;;;;;;;13.33;9.20;;;7.70;99.90;7.50;99839.00;;;;4936079;28;109568;-66
2023/02/24 02:12:26;;;;;;;14.67;8.00;;;7.70;99.90;7.50;99838.00;;;;4917769;28;88762;-66
2023/02/24 02:14:54;;;;;;;18.53;8.63;;;7.70;99.90;7.50;99821.00;;;;4935402;28;88631;-65
2023/02/24 02:17:42;;;;;;;10.27;7.53;;;7.90;99.90;7.40;99832.00;;;;4934166;28;88699;-67
2023/02/24 02:20:41;;;;;;;12.73;8.17;;;7.60;99.90;7.40;99826.00;;;;4933415;28;87651;-66
2023/02/24 02:23:35;;;;;;;12.03;7.43;;;7.60;99.90;7.40;99826.00;;;;4936272;28;95813;-67
2023/02/24 02:26:39;;;;;;;18.20;8.27;;;7.60;99.90;7.30;99837.00;;;;4934786;28;87815;-67
2023/02/24 02:29:24;;;;;;;11.80;8.13;;;7.70;99.90;7.30;99834.00;;;;4936889;28;87594;-65
2023/02/24 02:32:33;;;;;;;12.17;7.30;;;7.50;99.90;7.30;99826.00;;;;4934934;28;88065;-65
2023/02/24 02:35:08;;;;;;;15.70;7.47;;;7.50;99.90;7.30;99825.00;;;;4950415;28;99389;-67
2023/02/24 02:37:57;;;;;;;13.53;6.40;;;7.40;99.90;7.20;99831.00;;;;4934692;28;89035;-66
2023/02/24 02:40:30;;;;;;;13.17;8.20;;;7.30;99.90;7.20;99829.00;;;;4946563;28;87704;-67
2023/02/24 02:43:13;;;;;;;9.77;5.23;;;7.40;99.90;7.10;99824.00;;;;4936058;28;87711;-66
2023/02/24 02:45:48;;;;;;;9.33;5.80;;;7.30;99.90;7.10;99830.00;;;;4929539;28;89250;-65
2023/02/24 02:48:35;;;;;;;15.60;6.63;;;7.20;99.90;7.00;99834.00;;;;4935271;28;87958;-65
2023/02/24 02:51:12;;;;;;;13.77;6.40;;;7.30;99.90;7.00;99829.00;;;;4937379;28;100582;-66
2023/02/24 02:54:02;;;;;;;9.83;6.33;;;7.20;99.90;7.00;99826.00;;;;4937791;28;100364;-66
2023/02/24 02:56:36;;;;;;;9.80;6.47;;;7.20;99.90;7.00;99831.00;;;;4938095;28;87227;-67
2023/02/24 02:59:04;;;;;;;14.77;6.40;;;7.70;99.90;7.00;99827.00;;;;4965230;28;99404;-66
2023/02/24 03:01:36;;;;;;;15.13;7.77;;;7.20;99.90;7.00;99817.00;;;;4933047;28;110570;-66
2023/02/24 03:04:07;;;;;;;11.10;5.63;;;7.20;99.90;7.00;99820.00;;;;4934260;28;88852;-65
2023/02/24 03:06:37;;;;;;;13.23;5.80;;;7.10;99.90;7.00;99817.00;;;;4953940;28;88219;-65
2023/02/24 03:09:18;;;;;;;18.00;5.60;;;7.20;99.90;7.00;99804.00;;;;4939826;28;101119;-65
2023/02/24 03:11:49;;;;;;;13.00;6.70;;;7.10;99.90;7.00;99805.00;;;;4934809;28;88133;-65
2023/02/24 03:14:18;;;;;;;10.90;6.77;;;7.10;99.90;7.00;99803.00;;;;4936540;28;100101;-66
2023/02/24 03:16:50;;;;;;;23.90;8.27;;;7.10;99.90;7.00;99807.00;;;;4935303;28;102337;-66
2023/02/24 03:19:21;;;;;;;18.07;8.23;;;7.10;99.90;7.00;99792.00;;;;4942467;28;88360;-66
2023/02/24 03:22:12;;;;;;;14.90;6.57;;;7.10;99.90;6.90;99797.00;;;;4937045;28;102772;-64
2023/02/24 03:24:40;;;;;;;10.37;6.63;;;7.10;99.90;6.90;99795.00;;;;4936680;28;88756;-66
2023/02/24 03:27:19;;;;;;;15.00;7.33;;;7.10;99.90;6.90;99801.00;;;;4938296;28;88000;-67
2023/02/24 03:30:18;;;;;;;14.73;6.87;;;7.10;99.90;6.90;99799.00;;;;4935962;28;88912;-66
2023/02/24 03:33:17;;;;;;;17.37;7.23;;;7.00;99.90;6.80;99783.00;;;;4934449;28;88258;-65
2023/02/24 03:35:43;;;;;;;12.17;6.70;;;7.50;99.90;6.80;99788.00;;;;4943153;28;87983;-63
2023/02/24 03:38:10;;;;;;;13.17;5.97;;;7.00;99.90;6.80;99780.00;;;;4941040;28;117033;-63
2023/02/24 03:40:42;;;;;;;13.47;6.50;;;7.00;99.90;6.80;99787.00;;;;4938448;28;90150;-66
2023/02/24 03:43:24;;;;;;;13.00;7.63;;;7.00;99.90;6.80;99784.00;;;;4940178;28;87989;-67
2023/02/24 03:45:51;;;;;;;13.23;6.93;;;7.00;99.90;6.80;99788.00;;;;4936774;28;88438;-67
2023/02/24 03:48:16;;;;;;;10.77;6.37;;;7.00;99.90;6.80;99775.00;;;;4938043;28;117111;-66
2023/02/24 03:50:43;;;;;;;14.23;7.57;;;7.00;99.90;6.80;99785.00;;;;4931832;28;117388;-64
2023/02/24 03:53:40;;;;;;;14.93;7.73;;;7.10;99.90;6.70;99784.00;;;;4936936;28;87823;-65
2023/02/24 03:56:26;;;;;;;12.17;6.83;;;7.00;99.90;6.70;99786.00;;;;4944462;28;89008;-64
2023/02/24 03:59:27;;;;;;;11.63;8.30;;;6.90;99.90;6.70;99781.00;;;;4937929;28;88247;-66
2023/02/24 04:01:59;;;;;;;17.23;7.33;;;6.90;99.90;6.70;99781.00;;;;4938226;28;88028;-66
2023/02/24 04:04:30;;;;;;;13.60;7.53;;;6.90;99.90;6.70;99779.00;;;;4934338;28;95350;-67
2023/02/24 04:07:29;;;;;;;12.97;7.37;;;6.80;99.90;6.70;99777.00;;;;4937191;28;87708;-65
2023/02/24 04:10:08;;;;;;;22.13;6.53;;;6.90;99.90;6.70;99764.00;;;;4936280;28;88710;-66
2023/02/24 04:12:54;;;;;;;20.40;6.90;;;6.80;99.90;6.60;99765.00;;;;4932496;28;88104;-67
2023/02/24 04:15:38;;;;;;;7.87;5.57;;;6.80;99.90;6.60;99769.00;;;;4945964;28;87166;-65
2023/02/24 04:18:20;;;;;;;15.87;7.00;;;6.80;99.90;6.60;99769.00;;;;4921832;28;88062;-66
2023/02/24 04:20:51;;;;;;;12.47;6.37;;;6.70;99.90;6.50;99771.00;;;;4920880;28;98323;-66
2023/02/24 04:23:24;;;;;;;10.07;4.93;;;6.80;99.90;6.50;99763.00;;;;4916753;28;89747;-67
2023/02/24 04:25:52;;;;;;;12.70;4.20;;;6.70;99.90;6.50;99767.00;;;;4922563;28;87823;-65
2023/02/24 04:28:23;;;;;;;7.67;4.53;;;6.70;99.90;6.40;99758.00;;;;4935419;28;87856;-66
2023/02/24 04:30:54;;;;;;;6.47;4.47;;;6.60;99.90;6.40;99758.00;;;;4922126;28;88242;-65
2023/02/24 04:33:20;;;;;;;9.73;5.10;;;7.10;99.90;6.30;99747.00;;;;4946135;28;106371;-65
2023/02/24 04:35:49;;;;;;;11.80;4.97;;;6.50;99.90;6.30;99755.00;;;;4935894;28;109355;-65
2023/02/24 04:38:16;;;;;;;8.73;4.30;;;6.50;99.90;6.30;99743.00;;;;4917214;28;88066;-65
2023/02/24 04:40:42;;;;;;;9.10;5.30;;;6.50;99.90;6.30;99747.00;;;;4937983;28;87826;-65
2023/02/24 04:43:11;;;;;;;11.00;4.93;;;6.40;99.90;6.30;99746.00;;;;4937835;28;99308;-64
2023/02/24 04:45:41;;;;;;;5.43;4.00;;;6.40;99.90;6.30;99752.00;;;;4938155;28;87884;-64
2023/02/24 04:48:14;;;;;;;7.17;3.47;;;6.70;99.90;6.20;99743.00;;;;4937195;28;89210;-65
2023/02/24 04:50:42;;;;;;;10.00;3.93;;;6.30;99.90;6.20;99740.00;;;;4940197;28;88455;-66
2023/02/24 04:53:16;;;;;;;9.27;3.73;;;7.00;99.90;6.10;99735.00;;;;4941104;28;88284;-66
2023/02/24 04:55:49;;;;;;;2.80;2.53;;;6.30;99.90;6.00;99737.00;;;;4939513;28;88073;-66
2023/02/24 04:58:18;;;;;;;7.50;2.40;;;6.60;99.90;5.90;99734.00;;;;4938756;28;89973;-65
2023/02/24 05:00:51;;;;;;;5.30;2.77;;;6.10;99.90;5.90;99731.00;;;;4938157;28;88309;-65
2023/02/24 05:03:18;;;;;;;3.23;2.20;;;6.10;99.90;5.80;99740.00;;;;4937405;28;88773;-64
2023/02/24 05:05:58;;;;;;;4.00;2.07;;;6.30;99.90;5.70;99731.00;;;;4932595;28;98353;-66
2023/02/24 05:08:26;;;;;;;1.77;1.63;;;6.00;99.90;5.60;99726.00;;;;4938074;28;87910;-65
2023/02/24 05:10:53;;;;;;;8.53;1.93;;;5.80;99.90;5.60;99739.00;;;;4948489;28;97628;-65
2023/02/24 05:13:26;;;;;;;3.57;1.47;;;6.30;99.90;5.50;99728.00;;;;4928766;28;88704;-65
2023/02/24 05:16:07;;;;;;;5.83;2.13;;;5.80;99.90;5.40;99729.00;;;;4933974;28;101571;-63
2023/02/24 05:18:35;;;;;;;1.43;1.33;;;5.60;99.90;5.30;99728.00;;;;4934108;28;88055;-63
2023/02/24 05:23:53;;;;;;;4.27;2.20;;;5.50;99.90;5.20;99726.00;;;;4935736;28;88824;-64
2023/02/24 05:26:24;;;;;;;5.27;2.00;;;5.50;99.90;5.20;99722.00;;;;4935601;28;88106;-64
2023/02/24 05:28:51;;;;;;;2.10;1.30;;;5.40;99.90;5.20;99731.00;;;;4945986;28;87840;-64
2023/02/24 05:31:27;;;;;;;2.00;1.77;;;5.40;99.90;5.20;99728.00;;;;4930189;28;106181;-65
2023/02/24 05:34:00;;;;;;;4.37;1.93;;;5.90;99.90;5.20;99729.00;;;;4933451;28;88180;-64
2023/02/24 05:36:30;;;;;;;3.73;2.10;;;5.40;99.90;5.10;99730.00;;;;4933720;28;87901;-64
2023/02/24 05:39:06;;;;;;;2.57;1.93;;;5.30;99.90;5.10;99736.00;;;;4932811;28;88624;-64
2023/02/24 05:41:35;;;;;;;2.97;2.00;;;5.30;99.90;5.10;99730.00;;;;4933038;28;88002;-64
2023/02/24 05:44:07;;;;;;;6.00;2.20;;;5.60;99.90;5.10;99719.00;;;;4932058;28;88045;-64
2023/02/24 05:46:35;;;;;;;8.97;2.10;;;6.00;99.90;5.10;99725.00;;;;4929663;28;88226;-63
2023/02/24 05:49:08;;;;;;;3.27;2.13;;;5.30;99.90;5.10;99716.00;;;;4942431;28;87612;-63
2023/02/24 05:51:37;;;;;;;4.30;2.37;;;5.20;99.90;5.10;99717.00;;;;4932363;28;88279;-63
2023/02/24 05:54:07;;;;;;;4.37;2.40;;;5.20;99.90;5.10;99729.00;;;;4933056;28;87783;-65
2023/02/24 05:56:35;;;;;;;3.50;1.63;;;5.30;99.90;5.10;99717.00;;;;4932123;28;87106;-64
2023/02/24 05:59:05;;;;;;;2.40;1.70;;;5.30;99.90;5.10;99723.00;;;;4929159;28;99214;-64
2023/02/24 06:01:33;;;;;;;3.77;1.93;;;5.30;99.90;5.10;99720.00;;;;4932707;28;89108;-64
2023/02/24 06:04:06;;;;;;;7.00;1.67;;;5.20;99.90;5.00;99728.00;;;;4931632;28;88838;-64
2023/02/24 06:06:41;;;;;;;1.07;0.90;;;5.20;99.90;4.90;99733.00;;;;4944151;28;87999;-64
2023/02/24 06:09:11;;;;;;;1.70;1.33;;;5.10;99.90;4.80;99738.00;;;;4930267;28;88037;-64
2023/02/24 06:11:39;;;;;;;3.37;1.57;;;5.10;99.90;4.80;99736.00;;;;4947609;28;88021;-64
2023/02/24 06:14:06;;;;;;;3.40;1.33;;;5.00;99.90;4.70;99730.00;;;;4929019;28;88209;-64
2023/02/24 06:16:36;;;;;;;1.13;0.67;;;4.90;99.90;4.60;99723.00;;;;4933867;28;88162;-64
2023/02/24 06:19:04;;;;;;;9.07;1.77;;;4.90;99.90;4.50;99730.00;;;;4933617;28;88503;-64
2023/02/24 06:21:29;;;;;;;1.97;1.00;;;4.80;99.90;4.40;99732.00;;;;4933533;28;88509;-64
2023/02/24 06:23:57;;;;;;;3.13;2.03;;;4.70;99.90;4.40;99728.00;;;;4930456;28;116784;-64
2023/02/24 06:26:28;;;;;;;1.40;0.73;;;4.60;99.90;4.30;99722.00;;;;4945247;28;102472;-64
2023/02/24 06:28:57;;;;;;;1.37;1.23;;;4.60;99.90;4.30;99727.00;;;;4935876;28;88716;-64
2023/02/24 06:31:23;;;;;;;2.40;1.23;;;4.50;99.90;4.20;99719.00;;;;4937147;28;88164;-64
2023/02/24 06:33:52;;;;;;;4.20;1.53;;;4.50;99.90;4.10;99732.00;;;;4932261;28;97864;-64
2023/02/24 06:36:18;;;;;;;3.17;1.00;;;4.40;99.90;4.10;99727.00;;;;4934023;28;87849;-64
2023/02/24 06:38:45;;;;;;;3.00;1.50;;;4.40;99.90;4.10;99732.00;;;;4934829;28;91989;-64
2023/02/24 06:41:11;;;;;;;1.80;1.13;;;4.30;99.90;4.00;99726.00;;;;4936106;28;89104;-64
2023/02/24 06:43:44;;;;;;;3.23;0.83;;;4.30;99.90;4.00;99735.00;;;;4941318;28;103924;-64
2023/02/24 06:46:12;;;;;;;4.57;1.40;;;4.30;99.90;4.00;99737.00;;;;4933032;28;95030;-64
2023/02/24 06:48:38;;;;;;;1.23;1.10;;;5.10;99.90;4.00;99728.00;;;;4932927;28;93011;-64
2023/02/24 06:51:12;;;;;;;4.63;1.33;;;4.30;99.90;4.00;99721.00;;;;4934636;28;118231;-64
2023/02/24 06:53:42;;;;;;;1.23;0.30;;;4.20;99.90;4.00;99724.00;;;;4935481;28;89001;-64
2023/02/24 06:56:19;;;;;;;3.80;1.20;;;4.30;99.90;4.00;99735.00;;;;4936138;28;87781;-64
2023/02/24 06:58:49;;;;;;;2.60;1.33;;;4.20;99.90;4.00;99726.00;;;;4934848;28;87835;-64
2023/02/24 07:01:24;;;;;;;2.33;1.17;;;4.90;99.90;4.00;99731.00;;;;4932524;28;87879;-64
2023/02/24 07:06:34;;;;;;;4.73;1.07;;;4.20;99.90;4.00;99712.00;;;;4933859;28;87910;-65
2023/02/24 07:09:07;;;;;;;0.53;0.50;;;4.20;99.90;4.00;99712.00;;;;4935523;28;99328;-64
2023/02/24 07:11:35;;;;;;;0.80;0.80;;;4.30;99.90;4.10;99707.00;;;;4933179;28;88232;-65
2023/02/24 07:14:01;;;;;;;5.03;2.23;;;4.20;99.90;4.10;99700.00;;;;4931268;28;88012;-65
2023/02/24 07:16:27;;;;;;;2.27;0.77;;;4.20;99.90;4.10;99715.00;;;;4936429;28;87912;-65
2023/02/24 07:19:09;;;;;;;5.17;0.93;;;4.50;99.90;4.10;99695.00;;;;4934606;28;88818;-64
2023/02/24 07:21:38;;;;;;;3.23;0.90;;;4.40;99.90;4.10;99700.00;;;;4946143;28;87816;-64
2023/02/24 07:24:06;;;;;;;1.87;0.93;;;4.40;99.90;4.10;99696.00;;;;4930635;28;88134;-64
2023/02/24 07:26:32;;;;;;;5.30;1.33;;;4.30;99.90;4.20;99704.00;;;;4935918;28;88763;-65
2023/02/24 07:29:03;;;;;;;1.13;0.93;;;4.40;99.90;4.20;99708.00;;;;4935344;28;87756;-64
2023/02/24 07:31:31;;;;;;;2.63;1.50;;;4.40;99.90;4.20;99698.00;;;;4919272;28;88943;-64
2023/02/24 07:33:59;;;;;;;3.80;1.33;;;4.00;99.90;4.30;99691.00;;;;4935083;28;89132;-64
2023/02/24 07:36:28;;;;;;;3.17;1.50;;;4.80;99.90;4.30;99688.00;;;;4935721;28;87136;-65
2023/02/24 07:38:58;;;;;;;3.67;1.60;;;5.10;99.90;4.30;99692.00;;;;4931456;28;88081;-64
2023/02/24 07:41:25;;;;;;;5.30;1.30;;;4.60;99.90;4.40;99681.00;;;;4946806;28;89079;-64
2023/02/24 07:43:53;;;;;;;3.53;1.30;;;4.60;99.90;4.30;99672.00;;;;4934832;28;89458;-64
2023/02/24 07:46:25;;;;;;;1.73;1.03;;;4.60;99.90;4.30;99677.00;;;;4935310;28;88045;-63
2023/02/24 07:48:52;;;;;;;3.13;1.03;;;4.60;99.90;4.40;99668.00;;;;4930997;28;97201;-64
2023/02/24 07:51:24;;;;;;;4.03;2.03;;;4.60;99.90;4.40;99659.00;;;;4933442;28;88667;-64
2023/02/24 07:53:57;;;;;;;1.23;1.13;;;4.60;99.90;4.40;99663.00;;;;4933712;28;108745;-64
2023/02/24 07:56:27;;;;;;;4.43;1.47;;;4.60;99.90;4.40;99657.00;;;;4935006;28;88016;-64
2023/02/24 07:58:59;;;;;;;4.53;1.20;;;4.50;99.90;4.40;99656.00;;;;4946343;28;87640;-64
2023/02/24 08:01:37;;;;;;;1.00;0.90;;;5.50;99.90;4.50;99649.00;;;;4930778;28;87951;-63
2023/02/24 08:04:06;;;;;;;7.80;2.07;;;4.60;99.90;4.50;99646.00;;;;4918346;28;88127;-65
2023/02/24 08:06:43;;;;;;;3.00;1.93;;;4.70;99.90;4.60;99645.00;;;;4918675;28;87895;-64
2023/02/24 08:09:16;;;;;;;8.07;1.70;;;4.80;99.90;4.60;99630.00;;;;4934806;28;90966;-64
2023/02/24 08:11:51;;;;;;;4.73;1.87;;;4.80;99.90;4.60;99637.00;;;;4934157;28;88122;-64
2023/02/24 08:14:22;;;;;;;2.37;1.50;;;4.90;99.90;4.70;99646.00;;;;4933037;28;88244;-64
2023/02/24 08:16:52;;;;;;;1.33;0.77;;;4.80;99.90;4.70;99631.00;;;;4930204;28;87934;-65
2023/02/24 08:19:19;;;;;;;2.30;1.33;;;4.90;99.90;4.70;99628.00;;;;4941395;28;87634;-64
2023/02/24 08:21:49;;;;;;;2.20;1.40;;;4.80;99.90;4.80;99618.00;;;;4933283;28;89113;-64
2023/02/24 08:24:28;;;;;;;3.93;1.60;;;5.80;99.90;4.80;99613.00;;;;4914145;28;88277;-64
2023/02/24 08:27:05;;;;;;;2.00;1.27;;;4.90;99.90;4.80;99608.00;;;;4932019;28;87425;-65
2023/02/24 08:29:38;;;;;;;0.93;0.87;;;5.00;99.90;4.80;99599.00;;;;4929523;28;87968;-65
2023/02/24 08:32:08;;;;;;;3.70;1.57;;;5.00;99.90;4.80;99592.00;;;;4929951;28;88192;-64
2023/02/24 08:34:34;;;;;;;3.93;1.93;;;5.00;99.90;4.80;99589.00;;;;4933821;28;88922;-64
2023/02/24 08:37:00;;;;;;;6.00;1.57;;;5.80;99.90;4.80;99584.00;;;;4943194;28;87867;-64
2023/02/24 08:39:29;;;;;;;1.23;0.70;;;5.00;99.90;4.80;99592.00;;;;4931791;28;108975;-64
2023/02/24 08:41:58;;;;;;;3.23;1.80;;;5.50;99.90;4.90;99582.00;;;;4929440;28;87935;-64
2023/02/24 08:44:26;;;;;;;3.70;1.97;;;5.10;99.90;4.90;99572.00;;;;4932639;28;88960;-65
2023/02/24 08:46:52;;;;;;;3.00;1.63;;;5.00;99.90;5.00;99565.00;;;;4927488;28;89217;-64
2023/02/24 08:49:19;;;;;;;2.57;1.13;;;5.10;99.90;5.00;99580.00;;;;4930629;28;100003;-65
2023/02/24 08:51:47;;;;;;;9.33;1.83;;;5.70;99.90;5.10;99574.00;;;;4932825;28;103094;-65
2023/02/24 08:54:17;;;;;;;1.93;0.87;;;5.20;99.90;5.20;99577.00;;;;4929478;28;87812;-65
2023/02/24 08:56:54;;;;;;;3.17;1.43;;;5.30;99.90;5.30;99567.00;;;;4943046;28;87312;-65
2023/02/24 08:59:36;;;;;;;1.20;1.10;;;6.10;99.90;5.30;99566.00;;;;4916299;28;88789;-65
2023/02/24 09:02:17;;;;;;;3.07;1.83;;;5.40;99.90;5.30;99552.00;;;;4933770;28;88664;-65
2023/02/24 09:04:58;;;;;;;2.00;1.23;;;5.40;99.90;5.40;99565.00;;;;4932039;28;88176;-65
2023/02/24 09:07:37;;;;;;;2.93;0.80;;;5.50;99.90;5.50;99566.00;;;;4910642;28;88124;-65
2023/02/24 09:10:17;;;;;;;2.20;1.37;;;5.60;99.90;5.60;99551.00;;;;4930236;28;94615;-64
2023/02/24 09:12:44;;;;;;;4.03;1.23;;;5.90;99.90;5.70;99551.00;;;;4929249;28;109681;-64
2023/02/24 09:15:14;;;;;;;3.50;1.33;;;6.00;99.90;5.80;99541.00;;;;4944113;28;104402;-65
2023/02/24 09:23:06;;;;;;;3.00;0.97;;;6.00;99.90;5.80;99548.00;;;;4928212;28;88067;-67
2023/02/24 09:25:40;;;;;;;1.80;0.83;;;6.00;99.90;5.70;99537.00;;;;4928967;28;88829;-67
2023/02/24 09:28:26;;;;;;;11.93;2.07;;;6.40;99.90;5.70;99538.00;;;;4932949;28;87851;-66
2023/02/24 09:30:56;;;;;;;1.53;0.93;;;5.80;99.90;5.70;99521.00;;;;4931413;28;88041;-66
2023/02/24 09:33:38;;;;;;;6.30;1.40;;;5.80;99.90;5.70;99524.00;;;;4926343;28;89705;-66
2023/02/24 09:36:09;;;;;;;4.90;1.67;;;6.10;99.90;5.70;99518.00;;;;4932874;28;88298;-66
2023/02/24 09:41:52;;;;;;;9.97;1.43;;;5.80;99.90;5.60;99504.00;;;;4927890;28;88016;-67
2023/02/24 09:44:40;;;;;;;2.87;1.43;;;5.80;99.90;5.60;99499.00;;;;4913501;28;87075;-66
2023/02/24 09:47:38;;;;;;;3.13;2.20;;;5.80;99.90;5.50;99497.00;;;;4909482;28;103783;-66
2023/02/24 09:50:19;;;;;;;3.83;1.93;;;5.70;99.90;5.50;99493.00;;;;4930765;28;88253;-67
2023/02/24 09:52:54;;;;;;;2.43;1.20;;;5.70;99.90;5.50;99499.00;;;;4943608;28;92083;-67
2023/02/24 09:56:03;;;;;;;1.40;1.00;;;5.70;99.90;5.50;99488.00;;;;4932757;28;96359;-67
2023/02/24 09:58:36;;;;;;;5.20;1.37;;;5.70;99.90;5.50;99472.00;;;;4938991;28;88086;-67
2023/02/24 10:01:45;;;;;;;4.53;2.10;;;5.60;99.90;5.50;99477.00;;;;4925053;28;88180;-67
2023/02/24 10:04:10;;;;;;;5.13;1.63;;;5.70;99.90;5.60;99468.00;;;;4937305;28;87963;-68
2023/02/24 10:06:41;;;;;;;1.30;1.20;;;5.60;99.90;5.60;99467.00;;;;4932022;28;118495;-67
2023/02/24 10:09:23;;;;;;;7.10;1.47;;;6.30;99.90;5.70;99449.00;;;;4930764;28;87829;-67
2023/02/24 10:11:54;;;;;;;7.10;1.37;;;5.80;99.90;5.80;99448.00;;;;4944565;28;87440;-67
2023/02/24 10:14:37;;;;;;;2.13;1.47;;;5.80;99.90;5.90;99452.00;;;;4919967;28;88036;-67
2023/02/24 10:17:23;;;;;;;5.43;1.83;;;5.90;99.90;5.90;99441.00;;;;4917593;28;88613;-67
2023/02/24 10:20:29;;;;;;;7.07;1.80;;;6.00;99.90;5.90;99431.00;;;;4936724;28;88658;-67
2023/02/24 10:23:16;;;;;;;1.17;1.03;;;6.10;99.90;6.00;99435.00;;;;4936231;28;87859;-66
2023/02/24 10:25:52;;;;;;;3.53;1.60;;;6.20;99.90;6.10;99418.00;;;;4918010;28;101978;-65
2023/02/24 10:28:34;;;;;;;4.43;1.77;;;6.20;99.90;6.10;99416.00;;;;4918978;28;104399;-67
2023/02/24 10:31:24;;;;;;;5.97;2.47;;;6.30;99.90;6.10;99406.00;;;;4937672;28;87952;-66
2023/02/24 10:34:00;;;;;;;5.17;2.40;;;6.30;99.90;6.20;99407.00;;;;4920725;28;87853;-64
2023/02/24 10:36:35;;;;;;;3.50;2.00;;;6.30;99.90;6.20;99399.00;;;;4935880;28;87797;-66
2023/02/24 10:39:24;;;;;;;4.13;1.63;;;6.30;99.90;6.10;99391.00;;;;4920240;28;87272;-65
2023/02/24 10:42:16;;;;;;;3.10;1.57;;;7.10;99.90;6.20;99391.00;;;;4936238;28;87950;-66
2023/02/24 10:44:53;;;;;;;4.80;2.20;;;6.30;99.90;6.20;99385.00;;;;4936488;28;87722;-65
2023/02/24 10:47:29;;;;;;;6.30;2.33;;;6.30;99.90;6.20;99378.00;;;;4921459;28;89015;-66
2023/02/24 10:49:59;;;;;;;2.97;1.67;;;6.90;99.90;6.20;99386.00;;;;4919135;28;88978;-66
2023/02/24 10:53:09;;;;;;;2.60;1.80;;;6.30;99.90;6.20;99368.00;;;;4935851;28;87866;-66
2023/02/24 10:55:52;;;;;;;4.77;1.93;;;6.40;99.90;6.20;99371.00;;;;4924117;28;87717;-66
2023/02/24 11:01:54;;;;;;;4.60;2.30;;;6.40;99.90;6.30;99358.00;;;;4902341;28;88078;-63
2023/02/24 11:07:10;;;;;;;8.03;2.50;;;6.50;99.90;6.50;99347.00;;;;4945888;28;86833;-66
2023/02/24 11:09:51;;;;;;;9.93;2.63;;;6.60;99.90;6.50;99333.00;;;;4917007;28;87833;-66
2023/02/24 11:18:22;;;;;;;6.43;2.43;;;6.70;99.90;6.60;99315.00;;;;4914105;28;88131;-66
2023/02/24 11:20:53;;;;;;;9.07;1.73;;;6.90;99.90;6.60;99312.00;;;;4915632;28;87924;-66
2023/02/24 11:23:44;;;;;;;8.33;1.70;;;6.70;99.90;6.50;99309.00;;;;4932946;28;101007;-64
2023/02/24 11:26:21;;;;;;;2.83;2.30;;;7.10;99.90;6.50;99292.00;;;;4946330;28;88655;-66
2023/02/24 11:29:33;;;;;;;5.33;2.93;;;6.70;99.90;6.50;99295.00;;;;4936143;28;87834;-65
2023/02/24 11:32:31;;;;;;;5.27;3.13;;;6.60;99.90;6.50;99289.00;;;;4934747;28;87796;-66
2023/02/24 11:35:16;;;;;;;3.93;1.80;;;7.40;99.90;6.40;99279.00;;;;4933829;28;108102;-65
2023/02/24 11:37:53;;;;;;;3.80;2.20;;;6.60;99.90;6.40;99279.00;;;;4910135;28;102653;-65
2023/02/24 11:40:32;;;;;;;5.23;2.47;;;6.60;99.90;6.40;99278.00;;;;4916109;28;103122;-65
2023/02/24 11:43:17;;;;;;;3.73;2.80;;;6.60;99.90;6.40;99265.00;;;;4930605;28;88908;-65
2023/02/24 11:46:09;;;;;;;5.10;2.63;;;6.50;99.90;6.40;99264.00;;;;4925375;28;88340;-65
2023/02/24 11:48:55;;;;;;;3.93;2.23;;;6.60;99.90;6.40;99257.00;;;;4917217;28;88239;-66
2023/02/24 11:51:34;;;;;;;3.80;2.13;;;6.60;99.90;6.40;99248.00;;;;4916503;28;88362;-68
2023/02/24 11:54:12;;;;;;;8.70;2.47;;;6.40;99.90;6.40;99245.00;;;;4918422;28;87831;-66
2023/02/24 11:56:53;;;;;;;3.93;2.60;;;7.00;99.90;6.40;99241.00;;;;4933926;28;111049;-66
2023/02/24 11:59:30;;;;;;;4.07;2.73;;;6.80;99.90;6.40;99243.00;;;;4930302;28;87746;-68
2023/02/24 12:02:21;;;;;;;10.03;3.00;;;6.60;99.90;6.40;99232.00;;;;4933807;28;87125;-67
2023/02/24 12:05:13;;;;;;;5.67;2.33;;;6.60;99.90;6.40;99227.00;;;;4935292;28;88137;-68